1 FECHA RALLY BIKE PROVINCIAL
13 de abril de 2008

Con la intervención de 76 bikers, el día domingo 13 de abril del corriente año se efectivizó la 1ra. fecha del campeonato provincial de Rally Bike, que tuvo realización del Club MTB Catamarca, que unió Pirquitas con la sede de los organizadores.
Acompañados de una pertinaz llovizna, la victoria quedó en posesión de Luis Olima quien empleó un tiempo de 1 hr 27m21s para quedarse con el lugar más alto del podio.
Igualmente, el CMTBC felicitó el gestó de Agustín Fernández (2do. en categoría infantiles B), quien en una “muestra de compañerismo y buen competidor” ayudó a Kevin Oliva (1ro. en la misma divisional) luego de que “éste sufriera una caída en el transcurso del trazado de competencia”, según explicaron.
Y recalcaron que “esto demuestra que a pesar de ser rivales en la competencia ya que los dos son de la misma categoría existe un buen compañerismo deportivo”.

Luis Olima
Agustín Fernandez
Luis Olima
Agustín Fernandez

Pos. Nro. Competidor Tiempo Giros Velocidad Diferencia
Categoria ELITE

1 899 OLIMA LUIS ADRIAN 1:27:21 1 27 km/h 0:00:00
2 803 HAHAN LEANDRO 1:38:46 1 24 km/h 0:11:25
3 876 VERGARA JAVIER 1:40:04 1 24 km/h 0:12:42
4 813 NARVAEZ JAVIER 1:47:59 1 22 km/h 0:20:37
5 898 CORDOBA JORGE 2:08:02 1 19 km/h 0:40:41
6 842 SANTILLAN DARIO 2:13:49 1 18 km/h 0:46:27
7 819 AREDES JORGE 2:21:29 1 17 km/h 0:54:07
8 829 LOPEZ ADRIAN 2:57:38 1 14 km/h 1:30:17
9 883 FALIERE JORGE 3:14:24 1 12 km/h 1:47:02

Categoria SUB 23
1 793 FERREYRA FRANCO 1:32:52 1 26 km/h 0:00:00
2 779 SANCHEZ GASTON 1:34:55 1 25 km/h 0:02:03
3 777 BAZAN CLAUDIO 1:40:23 1 24 km/h 0:07:30
4 798 SUTIN PABLO 1:44:10 1 23 km/h 0:11:17
5 785 ORTEGA GASTON 1:46:23 1 23 km/h 0:13:30
6 771 RAMAYO ANGEL 2:00:27 1 20 km/h 0:27:34
7 797 MAZA ENRIQUE 2:00:57 1 20 km/h 0:28:04

Categoria JUVENILES
1 561 SEEWALD SAMUEL 1:28:30 1 27 km/h 0:00:00
2 587 CORDOBA GUSTAVO 2:21:49 1 17 km/h 0:53:19

Categoria CADETES

1 568 CHAILE GONZALO 1:39:41 1 24 km/h 0:00:00
2 1111 LOUSTAU RODRIGO 1:40:30 1 24 km/h 0:00:49
3 1113 LOPEZ FEDERICO 1:50:53 1 22 km/h 0:11:12
4 1112 AVILA WILSON 2:34:32 1 16 km/h 0:54:51

Categoria MASTER A
1 632 CORDOBA MARCELO 1:33:06 1 26 km/h 0:00:00
2 631 MEDINA CLAUDIO OMAR 1:34:31 1 25 km/h 0:01:24
3 695 PALACIO DANTE ENRIQUE 1:35:43 1 25 km/h 0:02:36
4 628 MEDINA ARIEL 1:36:52 1 25 km/h 0:03:45
5 665 NUÑEZ JUAN 1:36:55 1 25 km/h 0:03:48
6 645 VELEZ JOSE LUIS 1:38:35 1 24 km/h 0:05:29
7 600 DOMINGUEZ IGNACIO 1:39:55 1 24 km/h 0:06:48
8 616 VALDEZ JAVIER 1:41:10 1 24 km/h 0:08:03
9 656 BARRIONUEVO MARCELO 1:41:14 1 24 km/h 0:08:07
10 694 OLIVA DANIEL 1:44:45 1 23 km/h 0:11:39
11 670 HERRERA MANUEL 1:55:06 1 21 km/h 0:21:59
12 691 ANDREATTA CLAUDIO 1:55:57 1 21 km/h 0:22:50
13 622 AGUILERA EDUARDO 1:56:11 1 21 km/h 0:23:04
14 664 PERALTA MARTIN 1:58:17 1 20 km/h 0:25:10
15 647 PINTOS FERNANDO 2:16:32 1 18 km/h 0:43:25x

Categoria MASTER B

Pos. Nro. Competidor Tiempo Giros Velocidad Diferencia
1 919 ANDREATTA MIGUEL ANGEL 1:34:41 1 25 km/h 0:00:00
2 906 PALACIO ROLANDO ALFREDO 1:35:26 1 25 km/h 0:00:45
3 955 CORDOBA JUAN CESAR 1:36:36 1 25 km/h 0:01:55
4 992 FERNANDEZ ALEJANDRO 1:37:57 1 25 km/h 0:03:16
5 924 DAGOSTINI WALTER 1:38:03 1 24 km/h 0:03:22
6 966 SECO JORGE ROLANDO 1:42:57 1 23 km/h 0:08:16
7 921 CONTRERAS MIGUEL 1:43:51 1 23 km/h 0:09:10
8 969 LOPEZ DUILIO 1:59:20 1 20 km/h 0:24:39
9 989 CARRIZO JOSE MIGUEL 3:19:49 1 12 km/h 1:45:08

Categoria MENORES
1 456 CARRIZO CARLOS GUILLERMO 1:36:44 1 25 km/h 0:00:00
2 475 MARTINEZ ULISES 1:43:41 1 23 km/h 0:06:57
3 478 PICON MARCO 1:46:48 1 22 km/h 0:10:04
4 454 ORTEGA JUAN MANUEL 2:06:24 1 19 km/h 0:29:39
5 477 AREVALO JUAN 2:37:24 1 15 km/h 1:00:40

Categoria MASTER C
1 305 VIDOTTO LUIS 1:38:07 1 24 km/h 0:00:00
2 386 ROJAS LUIS 1:44:07 1 23 km/h 0:06:00
3 389 ALINI GUSTAVO RICARDO 1:50:00 1 22 km/h 0:11:52
4 376 DAVILA DIMAS 1:55:43 1 21 km/h 0:17:35
5 304 CORBALAN OSCAR 2:12:17 1 18 km/h 0:34:10

Categoria DAMAS
1 280 DIAZ URSULA 1:52:59 1 21 km/h 0:00:00
2 219 VALLEJO RITA DEL VALLE 1:57:51 1 20 km/h 0:04:51
3 227 TOLEDO TERESITA 2:58:48 1 13 km/h 1:05:48
4 210 PONCE CAROLINA 3:05:43 1 13 km/h 1:12:43
5 287 VILTE MMIRIAN 3:22:16 1 12 km/h 1:29:16

SB (137 imágenes)
Haz clic en una imagen para ampliarla.
Monigotes